createdAt,value
2019-01-30T00:00:02.006Z,10.75
2019-01-30T00:02:34.152Z,8.10
2019-01-30T00:05:07.547Z,6.90
2019-01-30T00:07:39.686Z,7.05
2019-01-30T00:10:11.826Z,6.62
2019-01-30T00:12:43.971Z,7.35
2019-01-30T00:15:16.098Z,6.35
2019-01-30T00:17:48.339Z,6.03
2019-01-30T00:20:20.470Z,8.03
2019-01-30T00:22:52.639Z,5.75
2019-01-30T00:25:24.768Z,8.60
2019-01-30T00:27:56.934Z,8.18
2019-01-30T00:30:29.084Z,5.20
2019-01-30T00:33:01.261Z,5.00
2019-01-30T00:35:33.391Z,4.95
2019-01-30T00:38:05.535Z,6.55
2019-01-30T00:40:37.666Z,6.28
2019-01-30T00:43:09.803Z,6.85
2019-01-30T00:45:41.951Z,4.87
2019-01-30T00:48:15.058Z,6.05
2019-01-30T00:50:47.191Z,6.28
2019-01-30T00:53:19.349Z,5.45
2019-01-30T00:55:51.466Z,6.08
2019-01-30T00:58:23.634Z,7.95
2019-01-30T01:00:55.758Z,5.25
2019-01-30T01:03:27.915Z,4.33
2019-01-30T01:06:00.110Z,7.03
2019-01-30T01:08:32.251Z,7.42
2019-01-30T01:11:04.394Z,7.30
2019-01-30T01:13:36.551Z,7.67
2019-01-30T01:16:08.684Z,13.70
2019-01-30T01:18:40.824Z,7.20
2019-01-30T01:21:12.955Z,6.85
2019-01-30T01:23:45.407Z,5.87
2019-01-30T01:26:17.542Z,6.00
2019-01-30T01:28:49.679Z,8.58
2019-01-30T01:31:21.822Z,7.40
2019-01-30T01:33:53.974Z,5.55
2019-01-30T01:36:26.111Z,5.17
2019-01-30T01:38:58.255Z,7.03
2019-01-30T01:41:30.394Z,6.22
2019-01-30T01:44:03.435Z,5.47
2019-01-30T01:46:35.566Z,10.30
2019-01-30T01:49:07.709Z,7.87
2019-01-30T01:51:39.845Z,6.00
2019-01-30T01:54:12.003Z,7.47
2019-01-30T01:56:44.162Z,4.78
2019-01-30T01:59:16.310Z,4.47
2019-01-30T02:01:48.441Z,5.95
2019-01-30T02:04:20.592Z,7.35
2019-01-30T02:06:52.726Z,6.65
2019-01-30T02:09:24.877Z,4.87
2019-01-30T02:11:57.120Z,6.65
2019-01-30T02:14:29.228Z,7.55
2019-01-30T02:17:01.365Z,7.70
2019-01-30T02:19:33.520Z,4.42
2019-01-30T02:22:05.671Z,5.50
2019-01-30T02:24:37.816Z,6.25
2019-01-30T02:27:09.948Z,8.50
2019-01-30T02:29:42.166Z,6.60
2019-01-30T02:32:14.309Z,5.35
2019-01-30T02:34:47.401Z,5.10
2019-01-30T02:37:19.554Z,6.55
2019-01-30T02:39:51.712Z,4.75
2019-01-30T02:42:24.402Z,4.42
2019-01-30T02:44:56.559Z,7.25
2019-01-30T02:47:28.686Z,4.97
2019-01-30T02:50:00.828Z,4.22
2019-01-30T02:52:32.967Z,5.08
2019-01-30T02:55:06.182Z,7.03
2019-01-30T02:57:38.312Z,5.90
2019-01-30T03:00:18.047Z,6.25
2019-01-30T03:02:50.177Z,6.65
2019-01-30T03:05:22.365Z,5.35
2019-01-30T03:07:54.505Z,6.12
2019-01-30T03:10:26.653Z,6.35
2019-01-30T03:12:58.797Z,8.25
2019-01-30T03:15:30.933Z,6.20
2019-01-30T03:18:03.071Z,6.00
2019-01-30T03:20:35.230Z,5.00
2019-01-30T03:23:07.357Z,6.83
2019-01-30T03:25:39.509Z,5.75
2019-01-30T03:28:11.648Z,5.67
2019-01-30T03:30:43.797Z,4.58
2019-01-30T03:33:15.940Z,5.70
2019-01-30T03:35:48.110Z,4.35
2019-01-30T03:38:20.240Z,6.28
2019-01-30T03:40:52.391Z,10.35
2019-01-30T03:43:24.567Z,4.08
2019-01-30T03:45:56.704Z,4.35
2019-01-30T03:48:28.848Z,7.70
2019-01-30T03:51:00.994Z,7.75
2019-01-30T03:53:33.130Z,4.30
2019-01-30T03:56:05.268Z,6.47
2019-01-30T03:58:37.388Z,6.42
2019-01-30T04:01:09.540Z,4.03
2019-01-30T04:03:41.684Z,4.95
2019-01-30T04:06:13.932Z,5.25
2019-01-30T04:08:46.087Z,7.22
2019-01-30T04:11:18.239Z,5.25
2019-01-30T04:13:50.372Z,6.15
2019-01-30T04:16:22.519Z,7.10
2019-01-30T04:18:54.663Z,6.60
2019-01-30T04:21:26.811Z,7.25
2019-01-30T04:23:59.039Z,6.03
2019-01-30T04:26:31.237Z,6.22
2019-01-30T04:29:03.383Z,7.40
2019-01-30T04:31:38.265Z,6.03
2019-01-30T04:34:09.400Z,6.20
2019-01-30T04:36:41.546Z,5.62
2019-01-30T04:39:13.729Z,6.50
2019-01-30T04:41:45.879Z,5.40
2019-01-30T04:44:18.027Z,5.97
2019-01-30T04:46:50.165Z,6.40
2019-01-30T04:49:22.299Z,12.68
2019-01-30T04:51:54.443Z,6.62
2019-01-30T04:54:26.571Z,6.28
2019-01-30T04:56:58.781Z,6.80
2019-01-30T04:59:30.933Z,5.85
2019-01-30T05:02:03.079Z,11.10
2019-01-30T05:04:35.209Z,5.83
2019-01-30T05:07:07.352Z,6.92
2019-01-30T05:09:39.496Z,6.55
2019-01-30T05:12:11.625Z,6.03
2019-01-30T05:14:43.807Z,7.85
2019-01-30T05:17:15.994Z,8.25
2019-01-30T05:19:48.152Z,16.70
2019-01-30T05:22:20.296Z,6.30
2019-01-30T05:24:52.446Z,8.10
2019-01-30T05:27:24.591Z,6.42
2019-01-30T05:29:56.734Z,8.08
2019-01-30T05:32:28.888Z,11.68
2019-01-30T05:35:01.010Z,5.62
2019-01-30T05:37:33.156Z,7.30
2019-01-30T05:40:06.907Z,9.33
2019-01-30T05:42:39.067Z,7.00
2019-01-30T05:45:12.391Z,6.78
2019-01-30T05:47:44.639Z,9.03
2019-01-30T05:50:16.776Z,11.00
2019-01-30T05:52:48.931Z,8.88
2019-01-30T05:55:21.112Z,10.45
2019-01-30T05:57:53.257Z,12.07
2019-01-30T06:00:31.914Z,7.00
2019-01-30T06:03:04.056Z,10.72
2019-01-30T06:05:36.207Z,8.33
2019-01-30T06:08:08.380Z,9.40
2019-01-30T06:10:40.531Z,14.63
2019-01-30T06:13:12.664Z,6.35
2019-01-30T06:15:44.912Z,7.50
2019-01-30T06:18:17.090Z,4.60
2019-01-30T06:20:49.257Z,5.50
2019-01-30T06:23:21.376Z,5.78
2019-01-30T06:25:53.536Z,5.42
2019-01-30T06:28:28.886Z,5.85
2019-01-30T06:30:59.539Z,8.88
2019-01-30T06:33:31.688Z,7.00
2019-01-30T06:36:03.835Z,8.88
2019-01-30T06:38:36.015Z,9.53
2019-01-30T06:41:08.208Z,13.22
2019-01-30T06:43:40.343Z,7.40
2019-01-30T06:46:12.711Z,11.75
2019-01-30T06:48:45.055Z,8.03
2019-01-30T06:51:17.265Z,11.00
2019-01-30T06:53:49.544Z,9.53
2019-01-30T06:56:21.754Z,7.75
2019-01-30T06:58:53.895Z,6.90
2019-01-30T07:01:26.144Z,8.18
2019-01-30T07:03:58.274Z,8.20
2019-01-30T07:06:30.524Z,8.05
2019-01-30T07:09:03.027Z,10.15
2019-01-30T07:11:35.175Z,9.10
2019-01-30T07:14:07.304Z,9.98
2019-01-30T07:16:39.821Z,8.43
2019-01-30T07:19:12.191Z,9.18
2019-01-30T07:21:44.339Z,8.60
2019-01-30T07:24:16.475Z,8.08
2019-01-30T07:26:48.635Z,7.95
2019-01-30T07:29:20.783Z,10.20
2019-01-30T07:31:52.977Z,8.33
2019-01-30T07:34:25.109Z,8.28
2019-01-30T07:36:57.328Z,8.98
2019-01-30T07:39:29.465Z,10.23
2019-01-30T07:42:01.604Z,9.45
2019-01-30T07:44:33.743Z,13.57
2019-01-30T07:47:06.359Z,10.32
2019-01-30T07:49:38.485Z,9.15
2019-01-30T07:52:10.628Z,8.45
2019-01-30T07:54:42.775Z,7.83
2019-01-30T07:57:14.906Z,10.25
2019-01-30T07:59:47.769Z,9.85
2019-01-30T08:02:21.933Z,10.48
2019-01-30T08:04:53.772Z,9.20
2019-01-30T08:07:27.714Z,10.58
2019-01-30T08:09:59.953Z,8.48
2019-01-30T08:12:32.094Z,11.25
2019-01-30T08:15:05.861Z,9.30
2019-01-30T08:17:38.019Z,11.12
2019-01-30T08:20:11.149Z,11.50
2019-01-30T08:22:43.312Z,10.45
2019-01-30T08:25:16.430Z,8.58
2019-01-30T08:27:48.967Z,9.43
2019-01-30T08:30:23.483Z,8.48
2019-01-30T08:33:04.051Z,8.38
2019-01-30T08:35:30.465Z,11.35
2019-01-30T08:38:02.618Z,6.92
2019-01-30T08:40:34.758Z,10.50
2019-01-30T08:43:06.910Z,12.58
2019-01-30T08:45:39.040Z,8.45
2019-01-30T08:48:12.152Z,15.40
2019-01-30T08:50:44.315Z,11.00
2019-01-30T08:53:16.472Z,10.85
2019-01-30T08:55:48.672Z,11.10
2019-01-30T08:58:20.834Z,11.00
2019-01-30T09:00:52.972Z,10.50
2019-01-30T09:03:25.116Z,8.60
2019-01-30T09:05:57.250Z,9.38
2019-01-30T09:08:29.395Z,8.83
2019-01-30T09:11:01.528Z,12.20
2019-01-30T09:13:33.677Z,14.63
2019-01-30T09:16:05.819Z,10.98
2019-01-30T09:18:37.976Z,15.03
2019-01-30T09:21:10.112Z,9.93
2019-01-30T09:23:42.275Z,11.38
2019-01-30T09:26:14.432Z,10.25
2019-01-30T09:28:46.566Z,13.08
2019-01-30T09:31:18.743Z,10.43
2019-01-30T09:33:50.870Z,11.60
2019-01-30T09:36:23.048Z,10.40
2019-01-30T09:38:55.204Z,11.68
2019-01-30T09:41:27.342Z,10.25
2019-01-30T09:43:59.524Z,12.45
2019-01-30T09:46:31.714Z,10.25
2019-01-30T09:49:03.854Z,11.25
2019-01-30T09:51:35.987Z,11.08
2019-01-30T09:54:08.136Z,11.80
2019-01-30T09:56:40.274Z,13.38
2019-01-30T09:59:12.420Z,12.50
2019-01-30T10:01:44.571Z,12.40
2019-01-30T10:04:19.387Z,15.58
2019-01-30T10:06:50.569Z,11.28
2019-01-30T10:09:22.730Z,10.30
2019-01-30T10:11:54.872Z,16.17
2019-01-30T10:14:27.014Z,19.45
2019-01-30T10:16:59.147Z,11.40
2019-01-30T10:19:31.293Z,13.10
2019-01-30T10:22:03.426Z,11.73
2019-01-30T10:24:35.611Z,13.13
2019-01-30T10:27:07.731Z,13.70
2019-01-30T10:29:39.889Z,17.70
2019-01-30T10:32:12.030Z,12.65
2019-01-30T10:34:44.189Z,10.50
2019-01-30T10:37:16.322Z,12.15
2019-01-30T10:39:48.651Z,11.73
2019-01-30T10:42:20.994Z,12.43
2019-01-30T10:44:53.111Z,10.63
2019-01-30T10:47:25.256Z,9.30
2019-01-30T10:49:57.386Z,13.50
2019-01-30T10:52:29.527Z,9.68
2019-01-30T10:55:01.695Z,11.35
2019-01-30T10:57:33.835Z,12.15
2019-01-30T11:00:09.176Z,9.75
2019-01-30T11:02:41.315Z,10.37
2019-01-30T11:05:14.566Z,12.13
2019-01-30T11:07:46.763Z,10.08
2019-01-30T11:10:19.612Z,12.80
2019-01-30T11:12:51.792Z,13.48
2019-01-30T11:15:25.310Z,14.85
2019-01-30T11:17:57.919Z,10.88
2019-01-30T11:20:30.089Z,14.40
2019-01-30T11:23:02.226Z,11.22
2019-01-30T11:25:38.859Z,10.43
2019-01-30T11:28:11.163Z,14.07
2019-01-30T11:30:43.309Z,13.55
2019-01-30T11:33:15.479Z,12.65
2019-01-30T11:35:47.706Z,12.93
2019-01-30T11:38:19.849Z,15.45
2019-01-30T11:40:52.022Z,15.78
2019-01-30T11:43:24.152Z,14.13
2019-01-30T11:45:56.299Z,14.28
2019-01-30T11:48:28.452Z,22.55
2019-01-30T11:51:00.627Z,17.17
2019-01-30T11:53:32.758Z,12.33
2019-01-30T11:56:05.005Z,14.50
2019-01-30T11:58:37.111Z,11.47
2019-01-30T12:01:09.268Z,12.93
2019-01-30T12:03:41.416Z,14.80
2019-01-30T12:06:13.575Z,15.48
2019-01-30T12:08:45.701Z,15.10
2019-01-30T12:11:17.863Z,15.58
2019-01-30T12:13:50.016Z,13.18
2019-01-30T12:16:22.158Z,15.10
2019-01-30T12:18:54.299Z,14.93
2019-01-30T12:21:26.452Z,13.22
2019-01-30T12:23:58.614Z,19.75
2019-01-30T12:26:30.759Z,15.90
2019-01-30T12:29:02.896Z,18.17
2019-01-30T12:31:35.051Z,17.73
2019-01-30T12:34:07.423Z,20.40
2019-01-30T12:36:39.579Z,16.07
2019-01-30T12:39:11.715Z,20.60
2019-01-30T12:41:43.878Z,19.57
2019-01-30T12:44:16.026Z,19.10
2019-01-30T12:46:48.186Z,14.55
2019-01-30T12:49:21.267Z,16.57
2019-01-30T12:51:53.394Z,16.10
2019-01-30T12:54:25.543Z,13.80
2019-01-30T12:56:57.696Z,16.95
2019-01-30T12:59:29.867Z,18.50
2019-01-30T13:02:02.004Z,14.07
2019-01-30T13:04:38.810Z,16.12
2019-01-30T13:07:09.405Z,15.70
2019-01-30T13:09:41.604Z,14.40
2019-01-30T13:12:13.738Z,18.17
2019-01-30T13:14:45.911Z,20.23
2019-01-30T13:17:18.927Z,19.30
2019-01-30T13:19:51.063Z,20.20
2019-01-30T13:22:23.213Z,25.68
2019-01-30T13:24:55.376Z,15.90
2019-01-30T13:27:27.522Z,16.77
2019-01-30T13:29:59.662Z,22.73
2019-01-30T13:32:32.180Z,13.62
2019-01-30T13:35:05.012Z,16.62
2019-01-30T13:37:37.155Z,13.15
2019-01-30T13:40:14.118Z,13.45
2019-01-30T13:42:46.250Z,13.93
2019-01-30T13:45:18.400Z,12.70
2019-01-30T13:47:50.545Z,14.60
2019-01-30T13:50:23.660Z,12.10
2019-01-30T13:52:55.806Z,14.98
2019-01-30T13:55:27.996Z,18.30
2019-01-30T13:58:00.106Z,11.43
2019-01-30T14:00:33.887Z,12.00
2019-01-30T14:03:06.225Z,12.23
2019-01-30T14:05:38.394Z,16.97
2019-01-30T14:08:10.556Z,15.45
2019-01-30T14:10:43.007Z,16.90
2019-01-30T14:13:15.165Z,19.42
2019-01-30T14:15:47.424Z,17.60
2019-01-30T14:18:19.661Z,19.65
2019-01-30T14:20:51.894Z,17.00
2019-01-30T14:23:24.055Z,15.03
2019-01-30T14:25:56.196Z,13.80
2019-01-30T14:28:28.311Z,11.05
2019-01-30T14:31:00.583Z,11.12
2019-01-30T14:33:32.743Z,16.07
2019-01-30T14:36:05.952Z,14.18
2019-01-30T14:38:38.234Z,16.00
2019-01-30T14:41:10.397Z,13.95
2019-01-30T14:43:42.536Z,12.58
2019-01-30T14:46:14.698Z,11.10
2019-01-30T14:48:46.918Z,16.35
2019-01-30T14:51:19.128Z,11.15
2019-01-30T14:53:51.258Z,21.70
2019-01-30T14:56:23.503Z,11.63
2019-01-30T14:58:55.601Z,14.03
2019-01-30T15:01:27.955Z,15.00
2019-01-30T15:04:00.167Z,19.27
2019-01-30T15:06:32.380Z,13.30
2019-01-30T15:09:06.820Z,12.98
2019-01-30T15:11:39.199Z,13.90
2019-01-30T15:14:11.365Z,14.78
2019-01-30T15:16:43.535Z,12.30
2019-01-30T15:19:15.669Z,27.37
2019-01-30T15:21:47.818Z,26.57
2019-01-30T15:24:19.955Z,25.27
2019-01-30T15:26:52.100Z,15.50
2019-01-30T15:29:24.306Z,14.53
2019-01-30T15:31:56.554Z,22.05
2019-01-30T15:34:28.687Z,19.92
2019-01-30T15:37:00.844Z,14.87
2019-01-30T15:39:32.998Z,14.30
2019-01-30T15:42:05.149Z,16.02
2019-01-30T15:44:37.280Z,13.10
2019-01-30T15:47:09.431Z,18.25
2019-01-30T15:49:41.583Z,14.70
2019-01-30T15:52:13.726Z,14.18
2019-01-30T15:54:45.926Z,12.95
2019-01-30T15:57:18.092Z,12.82
2019-01-30T15:59:50.215Z,11.83
2019-01-30T16:02:22.372Z,15.90
2019-01-30T16:04:54.528Z,16.27
2019-01-30T16:07:26.681Z,16.35
2019-01-30T16:09:58.814Z,18.20
2019-01-30T16:12:30.977Z,19.85
2019-01-30T16:15:03.489Z,16.62
2019-01-30T16:17:35.641Z,17.75
2019-01-30T16:20:09.452Z,22.17
2019-01-30T16:22:41.608Z,26.35
2019-01-30T16:25:13.765Z,19.35
2019-01-30T16:27:45.910Z,22.80
2019-01-30T16:30:19.117Z,20.27
2019-01-30T16:32:51.270Z,20.72
2019-01-30T16:35:25.060Z,20.82
2019-01-30T16:37:57.199Z,18.30
2019-01-30T16:40:29.336Z,23.18
2019-01-30T16:43:01.490Z,23.55
2019-01-30T16:45:33.656Z,26.30
2019-01-30T16:48:06.108Z,22.73
2019-01-30T16:50:38.248Z,24.55
2019-01-30T16:53:10.407Z,22.55
2019-01-30T16:55:42.548Z,19.62
2019-01-30T16:58:14.703Z,20.48
2019-01-30T17:00:46.874Z,24.07
2019-01-30T17:03:19.083Z,22.10
2019-01-30T17:05:51.226Z,23.83
2019-01-30T17:08:23.388Z,22.50
2019-01-30T17:10:55.544Z,26.87
2019-01-30T17:13:28.055Z,22.40
2019-01-30T17:16:00.203Z,22.05
2019-01-30T17:18:32.352Z,23.22
2019-01-30T17:21:04.482Z,24.15
2019-01-30T17:23:36.651Z,22.87
2019-01-30T17:26:08.816Z,23.57
2019-01-30T17:28:40.971Z,21.23
2019-01-30T17:31:13.113Z,22.93
2019-01-30T17:33:45.269Z,19.40
2019-01-30T17:36:18.533Z,20.82
2019-01-30T17:38:51.026Z,19.55
2019-01-30T17:41:23.176Z,20.65
2019-01-30T17:43:55.319Z,17.98
2019-01-30T17:46:28.014Z,19.10
2019-01-30T17:49:00.252Z,18.57
2019-01-30T17:51:33.509Z,21.02
2019-01-30T17:54:05.791Z,19.87
2019-01-30T17:56:37.940Z,20.70
2019-01-30T17:59:10.097Z,21.62
2019-01-30T18:01:42.256Z,19.63
2019-01-30T18:04:14.411Z,19.60
2019-01-30T18:06:46.554Z,17.85
2019-01-30T18:09:18.721Z,19.25
2019-01-30T18:11:50.858Z,19.37
2019-01-30T18:14:23.015Z,19.80
2019-01-30T18:16:55.155Z,18.82
2019-01-30T18:19:27.334Z,18.32
2019-01-30T18:21:59.451Z,17.85
2019-01-30T18:24:31.610Z,16.62
2019-01-30T18:27:05.944Z,14.03
2019-01-30T18:29:38.266Z,21.52
2019-01-30T18:32:10.416Z,17.70
2019-01-30T18:34:43.453Z,21.48
2019-01-30T18:37:15.598Z,17.98
2019-01-30T18:39:49.654Z,23.00
2019-01-30T18:42:21.636Z,14.45
2019-01-30T18:44:53.783Z,14.18
2019-01-30T18:47:25.914Z,11.25
2019-01-30T18:49:58.063Z,12.47
2019-01-30T18:52:30.259Z,12.40
2019-01-30T18:55:02.594Z,11.55
2019-01-30T18:57:34.978Z,20.10
2019-01-30T19:00:08.752Z,11.15
2019-01-30T19:02:43.551Z,10.78
2019-01-30T19:05:15.859Z,15.85
2019-01-30T19:07:48.106Z,11.28
2019-01-30T19:10:20.342Z,9.78
2019-01-30T19:12:52.483Z,10.10
2019-01-30T19:15:28.086Z,8.38
2019-01-30T19:18:00.368Z,9.48
2019-01-30T19:20:39.773Z,10.45
2019-01-30T19:23:12.078Z,9.53
2019-01-30T19:25:44.288Z,7.50
2019-01-30T19:28:16.601Z,9.33
2019-01-30T19:30:48.817Z,9.33
2019-01-30T19:33:21.021Z,12.50
2019-01-30T19:35:53.356Z,19.48
2019-01-30T19:38:25.596Z,18.98
2019-01-30T19:40:57.885Z,8.15
2019-01-30T19:43:30.246Z,9.23
2019-01-30T19:46:02.418Z,6.20
2019-01-30T19:48:34.622Z,7.17
2019-01-30T19:51:06.814Z,8.80
2019-01-30T19:53:38.967Z,7.62
2019-01-30T19:56:11.103Z,12.10
2019-01-30T19:58:43.323Z,9.80
2019-01-30T20:01:15.480Z,7.47
2019-01-30T20:03:47.695Z,9.43
2019-01-30T20:06:19.843Z,8.08
2019-01-30T20:08:52.046Z,10.80
2019-01-30T20:11:24.183Z,18.15
2019-01-30T20:13:56.344Z,6.50
2019-01-30T20:16:28.553Z,11.10
2019-01-30T20:19:00.830Z,6.95
2019-01-30T20:21:32.963Z,7.55
2019-01-30T20:24:05.141Z,6.75
2019-01-30T20:26:37.331Z,4.78
2019-01-30T20:29:09.755Z,5.87
2019-01-30T20:31:42.763Z,4.60
2019-01-30T20:34:14.943Z,3.85
2019-01-30T20:36:47.162Z,4.92
2019-01-30T20:39:19.322Z,6.08
2019-01-30T20:41:51.504Z,7.08
2019-01-30T20:44:23.739Z,6.40
2019-01-30T20:46:55.917Z,6.20
2019-01-30T20:49:28.115Z,5.15
2019-01-30T20:52:00.254Z,3.83
2019-01-30T20:54:32.396Z,6.78
2019-01-30T20:57:04.531Z,7.92
2019-01-30T20:59:36.671Z,6.13
2019-01-30T21:02:08.827Z,4.08
2019-01-30T21:04:40.955Z,6.17
2019-01-30T21:07:13.074Z,5.67
2019-01-30T21:09:45.225Z,5.85
2019-01-30T21:12:17.354Z,4.17
2019-01-30T21:14:49.499Z,3.40
2019-01-30T21:17:21.628Z,5.00
2019-01-30T21:19:53.771Z,10.28
2019-01-30T21:22:25.903Z,5.25
2019-01-30T21:24:59.070Z,2.83
2019-01-30T21:27:32.199Z,5.25
2019-01-30T21:30:06.347Z,4.05
2019-01-30T21:32:39.399Z,3.70
2019-01-30T21:35:11.575Z,4.90
2019-01-30T21:37:49.164Z,4.78
2019-01-30T21:40:18.475Z,4.33
2019-01-30T21:42:50.620Z,7.00
2019-01-30T21:45:23.440Z,4.60
2019-01-30T21:47:55.587Z,4.67
2019-01-30T21:50:27.731Z,5.97
2019-01-30T21:52:59.859Z,7.33
2019-01-30T21:55:32.074Z,6.83
2019-01-30T21:58:04.202Z,3.27
2019-01-30T22:00:36.346Z,7.55
2019-01-30T22:03:08.482Z,3.80
2019-01-30T22:05:40.622Z,6.40
2019-01-30T22:08:12.750Z,5.62
2019-01-30T22:10:44.901Z,4.05
2019-01-30T22:13:17.071Z,5.03
2019-01-30T22:15:49.227Z,6.03
2019-01-30T22:18:21.368Z,4.47
2019-01-30T22:20:53.522Z,4.60
2019-01-30T22:23:25.757Z,7.35
2019-01-30T22:25:57.901Z,3.95
2019-01-30T22:28:30.104Z,4.05
2019-01-30T22:31:02.246Z,5.42
2019-01-30T22:33:34.384Z,3.45
2019-01-30T22:36:06.527Z,5.80
2019-01-30T22:38:38.667Z,5.15
2019-01-30T22:41:10.820Z,6.22
2019-01-30T22:43:42.967Z,5.60
2019-01-30T22:46:15.107Z,5.30
2019-01-30T22:48:47.379Z,5.35
2019-01-30T22:51:19.543Z,3.98
2019-01-30T22:53:51.661Z,5.00
2019-01-30T22:56:23.810Z,6.30
2019-01-30T22:58:55.940Z,5.75
2019-01-30T23:01:29.728Z,4.92
2019-01-30T23:04:09.425Z,3.62
2019-01-30T23:06:49.207Z,4.95
2019-01-30T23:09:37.879Z,4.12
2019-01-30T23:12:23.813Z,5.00
2019-01-30T23:14:57.547Z,3.92
2019-01-30T23:17:37.551Z,5.08
2019-01-30T23:20:11.447Z,3.45
2019-01-30T23:23:01.806Z,5.12
2019-01-30T23:25:38.436Z,2.97
2019-01-30T23:28:27.271Z,2.70
2019-01-30T23:31:01.094Z,4.97
2019-01-30T23:33:34.847Z,5.25
2019-01-30T23:36:08.643Z,3.40
2019-01-30T23:38:42.408Z,4.72
2019-01-30T23:41:19.113Z,4.17
2019-01-30T23:44:10.943Z,4.05
2019-01-30T23:46:59.857Z,5.05
2019-01-30T23:49:36.593Z,3.05
2019-01-30T23:52:16.408Z,5.55
2019-01-30T23:54:55.842Z,3.00
2019-01-30T23:57:29.610Z,8.00
